Richland Center, Wisconsin
Current Conditions -  °F | °C
As of 8:56 PM on Friday 21 Nov 2014 (Local Time) from KLNR Reporting Station
Overcast Overcast  
Wind Chill: 27°   Ceiling: 2100
Heat Index: 35°   Visibility: 10mi
Dew Point: 11°   Wind: 12mph
Humidity: 37%   Direction: 180°S
Pressure: 30.13"   Gusts: NA
Location:  43.34°N, 90.39°W
Report Text: KLNR 220256Z AUTO 18010KT 10SM OVC021 02/M12 A3013 RMK AO2 SLP207 T00171117 58016
Loading
Personal Weather Stations






























Interactive Weather Map New forecast layout! Learn more

10-Day Weather Forecast

Advertisements
Track Severe Weather on mobile